sensor_id;sensor_type;location;lat;lon;timestamp;temperature;humidity
4505;DHT22;2265;48.794;9.520;2022-07-29T00:01:24;19.90;98.00
4505;DHT22;2265;48.794;9.520;2022-07-29T00:03:51;20.00;98.00
4505;DHT22;2265;48.794;9.520;2022-07-29T00:06:20;20.00;98.00
4505;DHT22;2265;48.794;9.520;2022-07-29T00:08:47;19.90;98.00
4505;DHT22;2265;48.794;9.520;2022-07-29T00:11:15;19.80;98.00
4505;DHT22;2265;48.794;9.520;2022-07-29T00:13:42;19.70;98.00
4505;DHT22;2265;48.794;9.520;2022-07-29T00:16:10;19.70;98.00
4505;DHT22;2265;48.794;9.520;2022-07-29T00:18:37;19.70;98.00
4505;DHT22;2265;48.794;9.520;2022-07-29T00:21:05;19.70;98.00
4505;DHT22;2265;48.794;9.520;2022-07-29T00:23:34;19.60;98.00
4505;DHT22;2265;48.794;9.520;2022-07-29T00:26:01;19.50;98.00
4505;DHT22;2265;48.794;9.520;2022-07-29T00:28:28;19.50;98.00
4505;DHT22;2265;48.794;9.520;2022-07-29T00:30:58;19.60;98.00
4505;DHT22;2265;48.794;9.520;2022-07-29T00:33:25;19.70;98.00
4505;DHT22;2265;48.794;9.520;2022-07-29T00:35:52;19.70;98.00
4505;DHT22;2265;48.794;9.520;2022-07-29T00:38:19;19.70;98.00
4505;DHT22;2265;48.794;9.520;2022-07-29T00:40:48;19.70;98.00
4505;DHT22;2265;48.794;9.520;2022-07-29T00:43:16;19.70;98.00
4505;DHT22;2265;48.794;9.520;2022-07-29T00:45:43;19.80;98.00
4505;DHT22;2265;48.794;9.520;2022-07-29T00:48:12;19.80;98.00
4505;DHT22;2265;48.794;9.520;2022-07-29T00:50:39;20.00;98.00
4505;DHT22;2265;48.794;9.520;2022-07-29T00:53:07;20.00;98.00
4505;DHT22;2265;48.794;9.520;2022-07-29T00:55:35;19.90;98.00
4505;DHT22;2265;48.794;9.520;2022-07-29T00:58:04;19.90;98.00
4505;DHT22;2265;48.794;9.520;2022-07-29T01:00:31;19.90;98.00
4505;DHT22;2265;48.794;9.520;2022-07-29T01:02:58;20.10;98.00
4505;DHT22;2265;48.794;9.520;2022-07-29T01:05:26;20.20;98.00
4505;DHT22;2265;48.794;9.520;2022-07-29T01:07:55;20.20;98.00
4505;DHT22;2265;48.794;9.520;2022-07-29T01:10:23;20.30;98.00
4505;DHT22;2265;48.794;9.520;2022-07-29T01:12:52;20.30;98.00
4505;DHT22;2265;48.794;9.520;2022-07-29T01:15:23;20.30;98.00
4505;DHT22;2265;48.794;9.520;2022-07-29T01:17:54;20.00;98.00
4505;DHT22;2265;48.794;9.520;2022-07-29T01:20:28;19.80;98.00
4505;DHT22;2265;48.794;9.520;2022-07-29T01:23:34;19.90;98.00
4505;DHT22;2265;48.794;9.520;2022-07-29T01:26:27;19.80;98.00
4505;DHT22;2265;48.794;9.520;2022-07-29T01:29:05;19.80;98.00
4505;DHT22;2265;48.794;9.520;2022-07-29T01:31:42;19.90;98.00
4505;DHT22;2265;48.794;9.520;2022-07-29T01:34:14;19.90;98.00
4505;DHT22;2265;48.794;9.520;2022-07-29T01:36:46;19.80;98.00
4505;DHT22;2265;48.794;9.520;2022-07-29T01:39:27;19.70;98.00
4505;DHT22;2265;48.794;9.520;2022-07-29T01:41:58;19.70;98.00
4505;DHT22;2265;48.794;9.520;2022-07-29T01:44:32;19.50;98.00
4505;DHT22;2265;48.794;9.520;2022-07-29T01:47:08;19.40;98.00
4505;DHT22;2265;48.794;9.520;2022-07-29T01:49:43;19.40;98.00
4505;DHT22;2265;48.794;9.520;2022-07-29T01:52:19;19.40;98.00
4505;DHT22;2265;48.794;9.520;2022-07-29T01:54:50;19.30;98.00
4505;DHT22;2265;48.794;9.520;2022-07-29T01:57:23;19.20;98.00
4505;DHT22;2265;48.794;9.520;2022-07-29T01:59:55;19.20;98.00
4505;DHT22;2265;48.794;9.520;2022-07-29T02:02:23;19.30;98.00
4505;DHT22;2265;48.794;9.520;2022-07-29T02:04:52;19.20;98.00
4505;DHT22;2265;48.794;9.520;2022-07-29T02:07:21;19.00;98.00
4505;DHT22;2265;48.794;9.520;2022-07-29T02:09:50;19.00;98.00
4505;DHT22;2265;48.794;9.520;2022-07-29T02:12:19;19.10;98.00
4505;DHT22;2265;48.794;9.520;2022-07-29T02:14:51;19.20;98.00
4505;DHT22;2265;48.794;9.520;2022-07-29T02:17:26;19.20;98.00
4505;DHT22;2265;48.794;9.520;2022-07-29T02:19:57;19.10;98.00
4505;DHT22;2265;48.794;9.520;2022-07-29T02:22:27;19.00;98.00
4505;DHT22;2265;48.794;9.520;2022-07-29T02:24:55;19.00;98.00
4505;DHT22;2265;48.794;9.520;2022-07-29T02:27:25;19.00;98.00
4505;DHT22;2265;48.794;9.520;2022-07-29T02:29:54;19.20;98.00
4505;DHT22;2265;48.794;9.520;2022-07-29T02:32:24;19.10;98.00
4505;DHT22;2265;48.794;9.520;2022-07-29T02:34:53;19.00;98.00
4505;DHT22;2265;48.794;9.520;2022-07-29T02:37:21;18.80;98.00
4505;DHT22;2265;48.794;9.520;2022-07-29T02:39:49;18.70;98.00
4505;DHT22;2265;48.794;9.520;2022-07-29T02:42:21;18.70;98.00
4505;DHT22;2265;48.794;9.520;2022-07-29T02:44:49;18.70;98.00
4505;DHT22;2265;48.794;9.520;2022-07-29T02:47:20;18.60;98.00
4505;DHT22;2265;48.794;9.520;2022-07-29T02:49:54;18.70;98.00
4505;DHT22;2265;48.794;9.520;2022-07-29T02:52:26;18.60;98.00
4505;DHT22;2265;48.794;9.520;2022-07-29T02:54:56;18.60;98.00
4505;DHT22;2265;48.794;9.520;2022-07-29T02:57:31;18.50;98.00
4505;DHT22;2265;48.794;9.520;2022-07-29T03:00:03;18.50;98.00
4505;DHT22;2265;48.794;9.520;2022-07-29T03:02:35;18.50;98.00
4505;DHT22;2265;48.794;9.520;2022-07-29T03:05:06;18.50;98.00
4505;DHT22;2265;48.794;9.520;2022-07-29T03:07:35;18.60;98.00
4505;DHT22;2265;48.794;9.520;2022-07-29T03:10:05;18.60;98.00
4505;DHT22;2265;48.794;9.520;2022-07-29T03:12:33;18.50;98.00
4505;DHT22;2265;48.794;9.520;2022-07-29T03:15:01;18.40;98.00
4505;DHT22;2265;48.794;9.520;2022-07-29T03:17:30;18.40;98.00
4505;DHT22;2265;48.794;9.520;2022-07-29T03:19:59;18.40;98.00
4505;DHT22;2265;48.794;9.520;2022-07-29T03:22:28;18.50;98.00
4505;DHT22;2265;48.794;9.520;2022-07-29T03:25:07;18.50;98.00
4505;DHT22;2265;48.794;9.520;2022-07-29T03:27:35;18.40;98.00
4505;DHT22;2265;48.794;9.520;2022-07-29T03:30:03;18.50;98.00
4505;DHT22;2265;48.794;9.520;2022-07-29T03:32:30;18.40;98.00
4505;DHT22;2265;48.794;9.520;2022-07-29T03:34:58;18.40;98.00
4505;DHT22;2265;48.794;9.520;2022-07-29T03:37:26;18.40;98.00
4505;DHT22;2265;48.794;9.520;2022-07-29T03:39:56;18.20;98.00
4505;DHT22;2265;48.794;9.520;2022-07-29T03:42:25;18.20;98.00
4505;DHT22;2265;48.794;9.520;2022-07-29T03:44:55;18.10;98.00
4505;DHT22;2265;48.794;9.520;2022-07-29T03:47:27;18.10;98.00
4505;DHT22;2265;48.794;9.520;2022-07-29T03:49:59;18.10;98.00
4505;DHT22;2265;48.794;9.520;2022-07-29T03:52:28;18.20;98.00
4505;DHT22;2265;48.794;9.520;2022-07-29T03:54:56;18.50;98.00
4505;DHT22;2265;48.794;9.520;2022-07-29T03:57:25;18.50;98.00
4505;DHT22;2265;48.794;9.520;2022-07-29T03:59:54;18.60;98.00
4505;DHT22;2265;48.794;9.520;2022-07-29T04:02:22;18.50;98.00
4505;DHT22;2265;48.794;9.520;2022-07-29T04:04:50;18.40;98.00
4505;DHT22;2265;48.794;9.520;2022-07-29T04:07:18;18.50;98.00
4505;DHT22;2265;48.794;9.520;2022-07-29T04:09:46;18.30;98.00
4505;DHT22;2265;48.794;9.520;2022-07-29T04:12:13;18.10;98.00
4505;DHT22;2265;48.794;9.520;2022-07-29T04:14:40;18.10;98.00
4505;DHT22;2265;48.794;9.520;2022-07-29T04:17:07;18.00;98.00
4505;DHT22;2265;48.794;9.520;2022-07-29T04:19:34;17.90;98.00
4505;DHT22;2265;48.794;9.520;2022-07-29T04:22:02;18.00;98.00
4505;DHT22;2265;48.794;9.520;2022-07-29T04:24:29;18.00;98.00
4505;DHT22;2265;48.794;9.520;2022-07-29T04:26:57;18.10;98.00
4505;DHT22;2265;48.794;9.520;2022-07-29T04:29:24;18.20;98.00
4505;DHT22;2265;48.794;9.520;2022-07-29T04:31:52;18.40;98.00
4505;DHT22;2265;48.794;9.520;2022-07-29T04:34:19;18.40;98.00
4505;DHT22;2265;48.794;9.520;2022-07-29T04:36:46;18.30;98.00
4505;DHT22;2265;48.794;9.520;2022-07-29T04:39:13;18.20;98.00
4505;DHT22;2265;48.794;9.520;2022-07-29T04:41:40;18.30;98.00
4505;DHT22;2265;48.794;9.520;2022-07-29T04:44:08;18.30;98.00
4505;DHT22;2265;48.794;9.520;2022-07-29T04:46:39;18.20;98.00
4505;DHT22;2265;48.794;9.520;2022-07-29T04:49:06;18.00;98.00
4505;DHT22;2265;48.794;9.520;2022-07-29T04:51:33;18.00;98.00
4505;DHT22;2265;48.794;9.520;2022-07-29T04:54:01;18.10;98.00
4505;DHT22;2265;48.794;9.520;2022-07-29T04:56:28;18.20;98.00
4505;DHT22;2265;48.794;9.520;2022-07-29T04:58:55;18.20;98.00
4505;DHT22;2265;48.794;9.520;2022-07-29T05:01:26;18.20;98.00
4505;DHT22;2265;48.794;9.520;2022-07-29T05:03:53;18.40;98.00
4505;DHT22;2265;48.794;9.520;2022-07-29T05:06:20;18.60;98.00
4505;DHT22;2265;48.794;9.520;2022-07-29T05:08:47;18.50;98.00
4505;DHT22;2265;48.794;9.520;2022-07-29T05:11:14;18.50;98.00
4505;DHT22;2265;48.794;9.520;2022-07-29T05:13:41;18.70;98.00
4505;DHT22;2265;48.794;9.520;2022-07-29T05:16:09;18.60;98.00
4505;DHT22;2265;48.794;9.520;2022-07-29T05:18:37;18.70;98.00
4505;DHT22;2265;48.794;9.520;2022-07-29T05:21:04;18.80;98.00
4505;DHT22;2265;48.794;9.520;2022-07-29T05:23:32;18.70;98.00
4505;DHT22;2265;48.794;9.520;2022-07-29T05:25:59;18.70;98.00
4505;DHT22;2265;48.794;9.520;2022-07-29T05:28:26;18.60;98.00
4505;DHT22;2265;48.794;9.520;2022-07-29T05:30:53;18.50;98.00
4505;DHT22;2265;48.794;9.520;2022-07-29T05:33:20;18.70;98.00
4505;DHT22;2265;48.794;9.520;2022-07-29T05:35:49;18.80;98.00
4505;DHT22;2265;48.794;9.520;2022-07-29T05:38:16;18.90;98.00
4505;DHT22;2265;48.794;9.520;2022-07-29T05:40:43;19.10;98.00
4505;DHT22;2265;48.794;9.520;2022-07-29T05:43:10;19.10;98.00
4505;DHT22;2265;48.794;9.520;2022-07-29T05:45:38;19.20;98.00
4505;DHT22;2265;48.794;9.520;2022-07-29T05:48:06;19.30;98.00
4505;DHT22;2265;48.794;9.520;2022-07-29T05:50:33;19.50;98.00
4505;DHT22;2265;48.794;9.520;2022-07-29T05:53:01;19.50;98.00
4505;DHT22;2265;48.794;9.520;2022-07-29T05:55:28;19.60;98.00
4505;DHT22;2265;48.794;9.520;2022-07-29T05:57:56;19.70;98.00
4505;DHT22;2265;48.794;9.520;2022-07-29T06:00:23;19.80;98.00
4505;DHT22;2265;48.794;9.520;2022-07-29T06:02:50;19.80;98.00
4505;DHT22;2265;48.794;9.520;2022-07-29T06:05:18;19.90;98.00
4505;DHT22;2265;48.794;9.520;2022-07-29T06:07:45;20.10;98.00
4505;DHT22;2265;48.794;9.520;2022-07-29T06:10:13;20.50;98.00
4505;DHT22;2265;48.794;9.520;2022-07-29T06:12:40;21.00;98.00
4505;DHT22;2265;48.794;9.520;2022-07-29T06:15:09;20.90;98.00
4505;DHT22;2265;48.794;9.520;2022-07-29T06:17:36;20.50;98.00
4505;DHT22;2265;48.794;9.520;2022-07-29T06:20:04;20.60;98.00
4505;DHT22;2265;48.794;9.520;2022-07-29T06:22:32;20.90;98.00
4505;DHT22;2265;48.794;9.520;2022-07-29T06:25:01;21.20;98.00
4505;DHT22;2265;48.794;9.520;2022-07-29T06:27:30;21.20;98.00
4505;DHT22;2265;48.794;9.520;2022-07-29T06:29:57;21.30;98.00
4505;DHT22;2265;48.794;9.520;2022-07-29T06:32:24;21.50;98.00
4505;DHT22;2265;48.794;9.520;2022-07-29T06:34:51;21.50;98.00
4505;DHT22;2265;48.794;9.520;2022-07-29T06:37:19;21.50;98.00
4505;DHT22;2265;48.794;9.520;2022-07-29T06:39:47;21.60;98.00
4505;DHT22;2265;48.794;9.520;2022-07-29T06:42:36;21.80;98.00
4505;DHT22;2265;48.794;9.520;2022-07-29T06:45:04;22.10;98.00
4505;DHT22;2265;48.794;9.520;2022-07-29T06:47:31;22.40;98.00
4505;DHT22;2265;48.794;9.520;2022-07-29T06:49:58;22.60;98.00
4505;DHT22;2265;48.794;9.520;2022-07-29T06:52:26;22.80;98.00
4505;DHT22;2265;48.794;9.520;2022-07-29T06:54:53;22.90;98.00
4505;DHT22;2265;48.794;9.520;2022-07-29T06:57:20;22.90;98.00
4505;DHT22;2265;48.794;9.520;2022-07-29T06:59:50;22.60;98.00
4505;DHT22;2265;48.794;9.520;2022-07-29T07:02:17;22.50;98.00
4505;DHT22;2265;48.794;9.520;2022-07-29T07:04:44;22.50;98.00
4505;DHT22;2265;48.794;9.520;2022-07-29T07:07:11;22.40;98.00
4505;DHT22;2265;48.794;9.520;2022-07-29T07:09:38;22.30;98.00
4505;DHT22;2265;48.794;9.520;2022-07-29T07:12:08;22.20;98.00
4505;DHT22;2265;48.794;9.520;2022-07-29T07:14:36;22.30;98.00
4505;DHT22;2265;48.794;9.520;2022-07-29T07:17:04;22.50;98.00
4505;DHT22;2265;48.794;9.520;2022-07-29T07:19:32;22.60;98.00
4505;DHT22;2265;48.794;9.520;2022-07-29T07:22:00;22.90;98.00
4505;DHT22;2265;48.794;9.520;2022-07-29T07:24:27;23.20;98.00
4505;DHT22;2265;48.794;9.520;2022-07-29T07:26:54;23.60;98.00
4505;DHT22;2265;48.794;9.520;2022-07-29T07:29:21;23.80;98.00
4505;DHT22;2265;48.794;9.520;2022-07-29T07:31:48;24.00;98.00
4505;DHT22;2265;48.794;9.520;2022-07-29T07:34:17;24.10;98.00
4505;DHT22;2265;48.794;9.520;2022-07-29T07:36:44;24.20;98.00
4505;DHT22;2265;48.794;9.520;2022-07-29T07:39:11;24.20;98.00
4505;DHT22;2265;48.794;9.520;2022-07-29T07:41:38;23.90;98.00
4505;DHT22;2265;48.794;9.520;2022-07-29T07:44:05;23.90;98.00
4505;DHT22;2265;48.794;9.520;2022-07-29T07:46:33;23.90;98.00
4505;DHT22;2265;48.794;9.520;2022-07-29T07:49:00;24.10;98.00
4505;DHT22;2265;48.794;9.520;2022-07-29T07:51:28;24.30;98.00
4505;DHT22;2265;48.794;9.520;2022-07-29T07:53:55;24.50;98.00
4505;DHT22;2265;48.794;9.520;2022-07-29T07:56:22;24.30;98.00
4505;DHT22;2265;48.794;9.520;2022-07-29T07:58:49;24.20;98.00
4505;DHT22;2265;48.794;9.520;2022-07-29T08:01:17;24.40;98.00
4505;DHT22;2265;48.794;9.520;2022-07-29T08:03:46;24.40;98.00
4505;DHT22;2265;48.794;9.520;2022-07-29T08:06:14;24.50;98.00
4505;DHT22;2265;48.794;9.520;2022-07-29T08:08:43;24.40;98.00
4505;DHT22;2265;48.794;9.520;2022-07-29T08:11:10;24.40;98.00
4505;DHT22;2265;48.794;9.520;2022-07-29T08:13:38;24.60;98.00
4505;DHT22;2265;48.794;9.520;2022-07-29T08:16:06;24.40;98.00
4505;DHT22;2265;48.794;9.520;2022-07-29T08:18:42;24.50;98.00
4505;DHT22;2265;48.794;9.520;2022-07-29T08:21:10;24.70;98.00
4505;DHT22;2265;48.794;9.520;2022-07-29T08:23:38;24.90;98.00
4505;DHT22;2265;48.794;9.520;2022-07-29T08:26:07;25.00;98.00
4505;DHT22;2265;48.794;9.520;2022-07-29T08:28:36;25.10;98.00
4505;DHT22;2265;48.794;9.520;2022-07-29T08:31:04;25.30;98.00
4505;DHT22;2265;48.794;9.520;2022-07-29T08:33:31;25.40;98.00
4505;DHT22;2265;48.794;9.520;2022-07-29T08:35:58;25.50;98.00
4505;DHT22;2265;48.794;9.520;2022-07-29T08:38:27;25.50;98.00
4505;DHT22;2265;48.794;9.520;2022-07-29T08:40:54;25.50;98.00
4505;DHT22;2265;48.794;9.520;2022-07-29T08:43:23;25.40;98.00
4505;DHT22;2265;48.794;9.520;2022-07-29T08:45:51;25.40;98.00
4505;DHT22;2265;48.794;9.520;2022-07-29T08:48:20;25.20;98.00
4505;DHT22;2265;48.794;9.520;2022-07-29T08:50:48;25.30;98.00
4505;DHT22;2265;48.794;9.520;2022-07-29T08:53:18;25.30;98.00
4505;DHT22;2265;48.794;9.520;2022-07-29T08:55:47;25.10;98.00
4505;DHT22;2265;48.794;9.520;2022-07-29T08:58:15;25.20;98.00
4505;DHT22;2265;48.794;9.520;2022-07-29T09:00:50;25.30;98.00
4505;DHT22;2265;48.794;9.520;2022-07-29T09:03:19;25.30;98.00
4505;DHT22;2265;48.794;9.520;2022-07-29T09:05:47;25.40;98.00
4505;DHT22;2265;48.794;9.520;2022-07-29T09:08:16;25.50;98.00
4505;DHT22;2265;48.794;9.520;2022-07-29T09:10:44;25.70;98.00
4505;DHT22;2265;48.794;9.520;2022-07-29T09:13:11;25.70;98.00
4505;DHT22;2265;48.794;9.520;2022-07-29T09:15:39;25.80;98.00
4505;DHT22;2265;48.794;9.520;2022-07-29T09:18:07;25.90;98.00
4505;DHT22;2265;48.794;9.520;2022-07-29T09:20:35;26.00;98.00
4505;DHT22;2265;48.794;9.520;2022-07-29T09:23:19;26.00;98.00
4505;DHT22;2265;48.794;9.520;2022-07-29T09:25:46;26.20;98.00
4505;DHT22;2265;48.794;9.520;2022-07-29T09:28:17;26.40;98.00
4505;DHT22;2265;48.794;9.520;2022-07-29T09:30:50;26.40;98.00
4505;DHT22;2265;48.794;9.520;2022-07-29T09:33:20;26.50;98.00
4505;DHT22;2265;48.794;9.520;2022-07-29T09:35:58;26.70;98.00
4505;DHT22;2265;48.794;9.520;2022-07-29T09:38:26;26.80;98.00
4505;DHT22;2265;48.794;9.520;2022-07-29T09:40:57;27.00;97.60
4505;DHT22;2265;48.794;9.520;2022-07-29T09:43:24;27.10;96.60
4505;DHT22;2265;48.794;9.520;2022-07-29T09:45:51;27.00;95.70
4505;DHT22;2265;48.794;9.520;2022-07-29T09:48:21;27.10;95.20
4505;DHT22;2265;48.794;9.520;2022-07-29T09:50:49;27.20;94.40
4505;DHT22;2265;48.794;9.520;2022-07-29T09:53:30;27.40;93.70
4505;DHT22;2265;48.794;9.520;2022-07-29T09:55:58;27.40;92.60
4505;DHT22;2265;48.794;9.520;2022-07-29T09:58:25;27.40;94.30
4505;DHT22;2265;48.794;9.520;2022-07-29T10:00:54;27.60;95.30
4505;DHT22;2265;48.794;9.520;2022-07-29T10:03:23;27.70;94.20
4505;DHT22;2265;48.794;9.520;2022-07-29T10:06:05;27.70;95.20
4505;DHT22;2265;48.794;9.520;2022-07-29T10:08:34;27.60;92.70
4505;DHT22;2265;48.794;9.520;2022-07-29T10:11:13;27.60;92.80
4505;DHT22;2265;48.794;9.520;2022-07-29T10:13:42;27.90;93.20
4505;DHT22;2265;48.794;9.520;2022-07-29T10:16:11;28.10;91.60
4505;DHT22;2265;48.794;9.520;2022-07-29T10:18:40;28.10;92.10
4505;DHT22;2265;48.794;9.520;2022-07-29T10:21:14;28.10;91.10
4505;DHT22;2265;48.794;9.520;2022-07-29T10:24:05;28.00;93.60
4505;DHT22;2265;48.794;9.520;2022-07-29T10:26:34;28.10;92.20
4505;DHT22;2265;48.794;9.520;2022-07-29T10:29:02;28.40;93.00
4505;DHT22;2265;48.794;9.520;2022-07-29T10:31:39;28.50;90.50
4505;DHT22;2265;48.794;9.520;2022-07-29T10:34:16;28.50;90.50
4505;DHT22;2265;48.794;9.520;2022-07-29T10:36:54;28.40;90.40
4505;DHT22;2265;48.794;9.520;2022-07-29T10:39:36;28.50;89.20
4505;DHT22;2265;48.794;9.520;2022-07-29T10:42:13;28.70;90.30
4505;DHT22;2265;48.794;9.520;2022-07-29T10:44:43;28.90;90.60
4505;DHT22;2265;48.794;9.520;2022-07-29T10:47:21;29.00;88.10
4505;DHT22;2265;48.794;9.520;2022-07-29T10:50:00;28.80;89.00
4505;DHT22;2265;48.794;9.520;2022-07-29T10:52:53;28.70;89.80
4505;DHT22;2265;48.794;9.520;2022-07-29T10:55:32;28.60;89.30
4505;DHT22;2265;48.794;9.520;2022-07-29T10:58:11;28.60;90.00
4505;DHT22;2265;48.794;9.520;2022-07-29T11:00:39;28.50;89.20
4505;DHT22;2265;48.794;9.520;2022-07-29T11:03:06;28.60;90.80
4505;DHT22;2265;48.794;9.520;2022-07-29T11:05:54;28.70;90.50
4505;DHT22;2265;48.794;9.520;2022-07-29T11:08:24;28.80;89.60
4505;DHT22;2265;48.794;9.520;2022-07-29T11:13:51;29.00;89.00
4505;DHT22;2265;48.794;9.520;2022-07-29T11:16:20;28.80;88.40
4505;DHT22;2265;48.794;9.520;2022-07-29T11:19:21;28.70;89.10
4505;DHT22;2265;48.794;9.520;2022-07-29T11:21:51;28.40;91.10
4505;DHT22;2265;48.794;9.520;2022-07-29T11:24:20;28.00;91.00
4505;DHT22;2265;48.794;9.520;2022-07-29T11:27:14;27.90;91.60
4505;DHT22;2265;48.794;9.520;2022-07-29T11:29:53;27.80;92.90
4505;DHT22;2265;48.794;9.520;2022-07-29T11:32:21;27.60;94.00
4505;DHT22;2265;48.794;9.520;2022-07-29T11:37:36;27.20;93.30
4505;DHT22;2265;48.794;9.520;2022-07-29T11:40:17;27.00;94.00
4505;DHT22;2265;48.794;9.520;2022-07-29T11:42:51;26.90;94.20
4505;DHT22;2265;48.794;9.520;2022-07-29T11:45:23;26.70;95.10
4505;DHT22;2265;48.794;9.520;2022-07-29T11:47:55;26.60;95.00
4505;DHT22;2265;48.794;9.520;2022-07-29T11:50:32;26.60;94.10
4505;DHT22;2265;48.794;9.520;2022-07-29T11:53:03;26.50;95.20
4505;DHT22;2265;48.794;9.520;2022-07-29T11:55:38;26.40;96.30
4505;DHT22;2265;48.794;9.520;2022-07-29T11:58:06;26.20;98.00
4505;DHT22;2265;48.794;9.520;2022-07-29T12:00:35;25.70;97.80
4505;DHT22;2265;48.794;9.520;2022-07-29T12:03:05;25.40;98.00
4505;DHT22;2265;48.794;9.520;2022-07-29T12:05:38;25.20;98.00
4505;DHT22;2265;48.794;9.520;2022-07-29T12:08:10;25.00;98.00
4505;DHT22;2265;48.794;9.520;2022-07-29T12:10:39;24.60;98.00
4505;DHT22;2265;48.794;9.520;2022-07-29T12:13:06;24.50;98.00
4505;DHT22;2265;48.794;9.520;2022-07-29T12:15:33;24.40;98.00
4505;DHT22;2265;48.794;9.520;2022-07-29T12:18:10;24.40;98.00
4505;DHT22;2265;48.794;9.520;2022-07-29T12:20:37;24.20;98.00
4505;DHT22;2265;48.794;9.520;2022-07-29T12:23:05;24.10;98.00
4505;DHT22;2265;48.794;9.520;2022-07-29T12:25:35;24.00;98.00
4505;DHT22;2265;48.794;9.520;2022-07-29T12:28:04;24.10;98.00
4505;DHT22;2265;48.794;9.520;2022-07-29T12:30:40;24.10;98.00
4505;DHT22;2265;48.794;9.520;2022-07-29T12:33:12;24.10;98.00
4505;DHT22;2265;48.794;9.520;2022-07-29T12:35:40;24.20;98.00
4505;DHT22;2265;48.794;9.520;2022-07-29T12:38:10;24.20;98.00
4505;DHT22;2265;48.794;9.520;2022-07-29T12:40:39;24.10;98.00
4505;DHT22;2265;48.794;9.520;2022-07-29T12:43:11;24.00;98.00
4505;DHT22;2265;48.794;9.520;2022-07-29T12:45:41;24.00;98.00
4505;DHT22;2265;48.794;9.520;2022-07-29T12:48:14;23.80;98.00
4505;DHT22;2265;48.794;9.520;2022-07-29T12:50:55;23.70;98.00
4505;DHT22;2265;48.794;9.520;2022-07-29T12:53:23;23.80;98.00
4505;DHT22;2265;48.794;9.520;2022-07-29T12:55:55;23.90;98.00
4505;DHT22;2265;48.794;9.520;2022-07-29T12:58:31;23.70;98.00
4505;DHT22;2265;48.794;9.520;2022-07-29T13:01:01;23.60;98.00
4505;DHT22;2265;48.794;9.520;2022-07-29T13:03:28;23.50;98.00
4505;DHT22;2265;48.794;9.520;2022-07-29T13:05:56;23.50;98.00
4505;DHT22;2265;48.794;9.520;2022-07-29T13:08:23;23.40;98.00
4505;DHT22;2265;48.794;9.520;2022-07-29T13:10:50;23.40;98.00
4505;DHT22;2265;48.794;9.520;2022-07-29T13:13:20;23.40;98.00
4505;DHT22;2265;48.794;9.520;2022-07-29T13:16:05;23.50;98.00
4505;DHT22;2265;48.794;9.520;2022-07-29T13:18:34;23.50;98.00
4505;DHT22;2265;48.794;9.520;2022-07-29T13:21:11;23.40;98.00
4505;DHT22;2265;48.794;9.520;2022-07-29T13:23:38;23.40;98.00
4505;DHT22;2265;48.794;9.520;2022-07-29T13:26:06;23.20;98.00
4505;DHT22;2265;48.794;9.520;2022-07-29T13:28:35;23.20;98.00
4505;DHT22;2265;48.794;9.520;2022-07-29T13:31:03;23.20;98.00
4505;DHT22;2265;48.794;9.520;2022-07-29T13:33:30;23.10;98.00
4505;DHT22;2265;48.794;9.520;2022-07-29T13:35:58;23.10;98.00
4505;DHT22;2265;48.794;9.520;2022-07-29T13:38:25;23.10;98.00
4505;DHT22;2265;48.794;9.520;2022-07-29T13:40:53;23.10;98.00
4505;DHT22;2265;48.794;9.520;2022-07-29T13:43:23;22.90;98.00
4505;DHT22;2265;48.794;9.520;2022-07-29T13:45:51;22.80;98.00
4505;DHT22;2265;48.794;9.520;2022-07-29T13:48:19;22.90;98.00
4505;DHT22;2265;48.794;9.520;2022-07-29T13:50:46;22.80;98.00
4505;DHT22;2265;48.794;9.520;2022-07-29T13:53:13;22.90;98.00
4505;DHT22;2265;48.794;9.520;2022-07-29T13:55:41;23.00;98.00
4505;DHT22;2265;48.794;9.520;2022-07-29T13:58:15;23.10;98.00
4505;DHT22;2265;48.794;9.520;2022-07-29T14:00:42;23.00;98.00
4505;DHT22;2265;48.794;9.520;2022-07-29T14:03:10;23.10;98.00
4505;DHT22;2265;48.794;9.520;2022-07-29T14:05:37;23.00;98.00
4505;DHT22;2265;48.794;9.520;2022-07-29T14:08:05;23.20;98.00
4505;DHT22;2265;48.794;9.520;2022-07-29T14:10:32;23.20;98.00
4505;DHT22;2265;48.794;9.520;2022-07-29T14:13:00;23.10;98.00
4505;DHT22;2265;48.794;9.520;2022-07-29T14:15:27;23.00;98.00
4505;DHT22;2265;48.794;9.520;2022-07-29T14:17:55;23.00;98.00
4505;DHT22;2265;48.794;9.520;2022-07-29T14:20:24;22.90;98.00
4505;DHT22;2265;48.794;9.520;2022-07-29T14:22:51;22.90;98.00
4505;DHT22;2265;48.794;9.520;2022-07-29T14:25:18;22.80;98.00
4505;DHT22;2265;48.794;9.520;2022-07-29T14:27:46;22.80;98.00
4505;DHT22;2265;48.794;9.520;2022-07-29T14:30:14;22.70;98.00
4505;DHT22;2265;48.794;9.520;2022-07-29T14:32:41;22.60;98.00
4505;DHT22;2265;48.794;9.520;2022-07-29T14:35:08;22.70;98.00
4505;DHT22;2265;48.794;9.520;2022-07-29T14:37:37;22.80;98.00
4505;DHT22;2265;48.794;9.520;2022-07-29T14:40:05;22.80;98.00
4505;DHT22;2265;48.794;9.520;2022-07-29T14:42:32;22.90;98.00
4505;DHT22;2265;48.794;9.520;2022-07-29T14:45:00;22.90;98.00
4505;DHT22;2265;48.794;9.520;2022-07-29T14:47:27;23.00;98.00
4505;DHT22;2265;48.794;9.520;2022-07-29T14:49:54;23.00;98.00
4505;DHT22;2265;48.794;9.520;2022-07-29T14:52:21;23.10;98.00
4505;DHT22;2265;48.794;9.520;2022-07-29T14:54:51;23.10;98.00
4505;DHT22;2265;48.794;9.520;2022-07-29T14:57:19;23.10;98.00
4505;DHT22;2265;48.794;9.520;2022-07-29T14:59:47;23.10;98.00
4505;DHT22;2265;48.794;9.520;2022-07-29T15:02:14;23.00;98.00
4505;DHT22;2265;48.794;9.520;2022-07-29T15:04:41;23.10;98.00
4505;DHT22;2265;48.794;9.520;2022-07-29T15:07:11;23.00;98.00
4505;DHT22;2265;48.794;9.520;2022-07-29T15:09:38;23.00;98.00
4505;DHT22;2265;48.794;9.520;2022-07-29T15:12:07;23.10;98.00
4505;DHT22;2265;48.794;9.520;2022-07-29T15:14:36;23.10;98.00
4505;DHT22;2265;48.794;9.520;2022-07-29T15:17:03;23.10;98.00
4505;DHT22;2265;48.794;9.520;2022-07-29T15:19:30;23.20;98.00
4505;DHT22;2265;48.794;9.520;2022-07-29T15:21:57;23.20;98.00
4505;DHT22;2265;48.794;9.520;2022-07-29T15:24:26;23.10;98.00
4505;DHT22;2265;48.794;9.520;2022-07-29T15:26:53;23.10;98.00
4505;DHT22;2265;48.794;9.520;2022-07-29T15:29:22;23.20;98.00
4505;DHT22;2265;48.794;9.520;2022-07-29T15:31:50;23.10;98.00
4505;DHT22;2265;48.794;9.520;2022-07-29T15:34:17;23.10;98.00
4505;DHT22;2265;48.794;9.520;2022-07-29T15:36:46;23.10;98.00
4505;DHT22;2265;48.794;9.520;2022-07-29T15:39:13;23.10;98.00
4505;DHT22;2265;48.794;9.520;2022-07-29T15:41:41;23.20;98.00
4505;DHT22;2265;48.794;9.520;2022-07-29T15:44:08;23.20;98.00
4505;DHT22;2265;48.794;9.520;2022-07-29T15:46:37;23.20;98.00
4505;DHT22;2265;48.794;9.520;2022-07-29T15:49:21;23.30;98.00
4505;DHT22;2265;48.794;9.520;2022-07-29T15:51:49;23.40;98.00
4505;DHT22;2265;48.794;9.520;2022-07-29T15:54:17;23.40;98.00
4505;DHT22;2265;48.794;9.520;2022-07-29T15:56:44;23.50;98.00
4505;DHT22;2265;48.794;9.520;2022-07-29T15:59:11;23.40;98.00
4505;DHT22;2265;48.794;9.520;2022-07-29T16:01:40;23.50;98.00
4505;DHT22;2265;48.794;9.520;2022-07-29T16:04:08;23.70;98.00
4505;DHT22;2265;48.794;9.520;2022-07-29T16:06:35;23.90;98.00
4505;DHT22;2265;48.794;9.520;2022-07-29T16:09:03;24.00;98.00
4505;DHT22;2265;48.794;9.520;2022-07-29T16:11:30;23.90;98.00
4505;DHT22;2265;48.794;9.520;2022-07-29T16:13:57;24.00;98.00
4505;DHT22;2265;48.794;9.520;2022-07-29T16:16:25;24.10;98.00
4505;DHT22;2265;48.794;9.520;2022-07-29T16:18:54;24.20;98.00
4505;DHT22;2265;48.794;9.520;2022-07-29T16:21:21;24.20;98.00
4505;DHT22;2265;48.794;9.520;2022-07-29T16:23:49;24.20;98.00